Terminal Aerodrome Forecast
Issued by NWS Bismarck, ND

Home | Current Version | Previous Version | Text Only | Print | Product List | Glossary On
Versions: 1 2 3 4 5 6 7 8 9 10 11 12 13 14 15 16 17 18 19 20 21 22 23 24 25 26 27 28 29
000
FTUS43 KBIS 292000 AAA
TAFBIS
TAF AMD
KBIS 292023Z 2920/3018 34013KT P6SM SCT020 BKN070
      TEMPO 2920/2923 BKN020
     FM292300 35015KT P6SM BKN070
     FM300300 VRB05KT P6SM VCFG SCT070
     FM301500 15010KT P6SM SKC=

USA.gov is the U.S. government's official web portal to all federal, state and local government web resources and services.